createdAt,value
2022-07-28T00:00:08.260Z,1.60
2022-07-28T00:02:35.815Z,1.23
2022-07-28T00:05:04.167Z,1.00
2022-07-28T00:07:31.610Z,1.65
2022-07-28T00:10:00.820Z,1.55
2022-07-28T00:12:28.388Z,1.10
2022-07-28T00:14:55.711Z,1.40
2022-07-28T00:17:22.748Z,1.20
2022-07-28T00:19:51.271Z,1.30
2022-07-28T00:22:19.079Z,1.02
2022-07-28T00:24:46.296Z,1.17
2022-07-28T00:27:19.247Z,1.30
2022-07-28T00:29:50.355Z,1.20
2022-07-28T00:32:19.354Z,1.13
2022-07-28T00:34:47.098Z,1.48
2022-07-28T00:37:14.879Z,1.20
2022-07-28T00:39:43.442Z,1.10
2022-07-28T00:42:12.362Z,1.10
2022-07-28T00:44:42.256Z,1.05
2022-07-28T00:47:09.404Z,1.27
2022-07-28T00:49:37.561Z,1.10
2022-07-28T00:52:06.194Z,1.30
2022-07-28T00:54:33.694Z,1.10
2022-07-28T00:57:00.759Z,1.10
2022-07-28T00:59:28.852Z,1.30
2022-07-28T01:01:56.711Z,1.10
2022-07-28T01:04:26.156Z,1.40
2022-07-28T01:06:59.323Z,1.52
2022-07-28T01:09:38.649Z,1.10
2022-07-28T01:12:12.499Z,1.10
2022-07-28T01:14:45.555Z,1.20
2022-07-28T01:17:31.389Z,1.42
2022-07-28T01:19:58.575Z,1.27
2022-07-28T01:22:30.921Z,1.20
2022-07-28T01:25:16.715Z,1.38
2022-07-28T01:28:04.071Z,1.70
2022-07-28T01:30:43.351Z,1.65
2022-07-28T01:33:21.692Z,1.65
2022-07-28T01:35:57.072Z,1.98
2022-07-28T01:38:25.077Z,1.70
2022-07-28T01:40:55.446Z,1.42
2022-07-28T01:43:25.151Z,1.67
2022-07-28T01:45:54.571Z,1.15
2022-07-28T01:48:24.909Z,1.67
2022-07-28T01:50:54.689Z,1.60
2022-07-28T01:53:23.217Z,1.42
2022-07-28T01:55:52.620Z,1.33
2022-07-28T01:58:23.602Z,1.20
2022-07-28T02:00:52.541Z,1.20
2022-07-28T02:03:22.907Z,1.40
2022-07-28T02:05:52.711Z,1.58
2022-07-28T02:08:22.361Z,1.40
2022-07-28T02:11:10.410Z,1.30
2022-07-28T02:13:39.596Z,1.40
2022-07-28T02:16:11.265Z,1.25
2022-07-28T02:18:40.495Z,1.27
2022-07-28T02:21:08.203Z,1.00
2022-07-28T02:23:36.431Z,1.10
2022-07-28T02:26:07.717Z,1.00
2022-07-28T02:28:36.580Z,0.95
2022-07-28T02:31:13.537Z,1.00
2022-07-28T02:33:59.846Z,1.27
2022-07-28T02:36:32.803Z,1.10
2022-07-28T02:39:07.700Z,1.13
2022-07-28T02:41:41.670Z,1.30
2022-07-28T02:44:27.327Z,1.13
2022-07-28T02:46:57.064Z,1.20
2022-07-28T02:49:30.252Z,1.25
2022-07-28T02:51:59.456Z,1.05
2022-07-28T02:54:29.016Z,1.13
2022-07-28T02:56:58.559Z,1.33
2022-07-28T02:59:26.743Z,1.10
2022-07-28T03:01:55.560Z,1.00
2022-07-28T03:04:43.222Z,1.38
2022-07-28T03:07:10.897Z,1.17
2022-07-28T03:09:40.444Z,1.10
2022-07-28T03:12:08.859Z,1.30
2022-07-28T03:14:36.577Z,1.23
2022-07-28T03:17:05.493Z,1.30
2022-07-28T03:19:34.335Z,1.20
2022-07-28T03:22:01.776Z,1.30
2022-07-28T03:24:32.795Z,1.58
2022-07-28T03:27:10.117Z,1.20
2022-07-28T03:29:39.013Z,1.10
2022-07-28T03:32:08.105Z,1.05
2022-07-28T03:34:35.678Z,1.20
2022-07-28T03:37:13.410Z,1.15
2022-07-28T03:39:48.147Z,1.20
2022-07-28T03:42:20.856Z,1.25
2022-07-28T03:44:48.479Z,1.05
2022-07-28T03:47:15.882Z,1.20
2022-07-28T03:49:46.335Z,1.10
2022-07-28T03:52:13.500Z,1.30
2022-07-28T03:54:40.542Z,1.23
2022-07-28T03:57:07.581Z,1.42
2022-07-28T03:59:34.579Z,1.10
2022-07-28T04:02:02.479Z,1.50
2022-07-28T04:04:29.867Z,1.40
2022-07-28T04:06:57.658Z,1.27
2022-07-28T04:09:25.565Z,1.25
2022-07-28T04:11:52.538Z,1.42
2022-07-28T04:14:19.982Z,1.33
2022-07-28T04:16:47.367Z,1.58
2022-07-28T04:19:14.652Z,1.50
2022-07-28T04:21:42.195Z,1.30
2022-07-28T04:24:11.058Z,1.60
2022-07-28T04:26:39.461Z,1.42
2022-07-28T04:29:06.832Z,1.48
2022-07-28T04:31:33.881Z,1.30
2022-07-28T04:34:00.958Z,1.48
2022-07-28T04:36:27.926Z,1.40
2022-07-28T04:38:55.001Z,1.90
2022-07-28T04:41:22.432Z,1.42
2022-07-28T04:43:49.485Z,1.20
2022-07-28T04:46:16.560Z,1.70
2022-07-28T04:48:45.451Z,1.70
2022-07-28T04:51:12.735Z,1.60
2022-07-28T04:53:39.968Z,1.50
2022-07-28T04:56:07.179Z,2.00
2022-07-28T04:58:35.200Z,1.50
2022-07-28T05:01:02.447Z,1.70
2022-07-28T05:03:34.080Z,1.90
2022-07-28T05:06:03.520Z,1.30
2022-07-28T05:08:30.587Z,1.38
2022-07-28T05:10:57.766Z,1.48
2022-07-28T05:13:26.783Z,1.60
2022-07-28T05:15:56.293Z,1.80
2022-07-28T05:18:24.173Z,1.65
2022-07-28T05:20:51.595Z,1.80
2022-07-28T05:23:18.566Z,1.42
2022-07-28T05:25:46.136Z,1.40
2022-07-28T05:28:13.183Z,1.70
2022-07-28T05:30:40.362Z,1.30
2022-07-28T05:33:07.406Z,1.50
2022-07-28T05:35:34.946Z,1.60
2022-07-28T05:38:01.879Z,2.08
2022-07-28T05:40:30.142Z,1.42
2022-07-28T05:42:57.183Z,1.55
2022-07-28T05:45:24.452Z,1.55
2022-07-28T05:47:53.426Z,1.75
2022-07-28T05:50:27.700Z,1.60
2022-07-28T05:52:54.920Z,1.70
2022-07-28T05:55:22.472Z,1.60
2022-07-28T05:57:51.106Z,1.65
2022-07-28T06:00:21.288Z,1.35
2022-07-28T06:02:51.447Z,1.30
2022-07-28T06:05:21.013Z,1.40
2022-07-28T06:07:50.159Z,1.40
2022-07-28T06:10:22.111Z,1.38
2022-07-28T06:12:52.702Z,1.20
2022-07-28T06:15:23.314Z,1.40
2022-07-28T06:17:56.020Z,1.40
2022-07-28T06:20:24.770Z,1.60
2022-07-28T06:22:55.100Z,1.92
2022-07-28T06:25:27.961Z,1.10
2022-07-28T06:27:57.129Z,1.20
2022-07-28T06:30:26.425Z,1.17
2022-07-28T06:32:53.937Z,1.27
2022-07-28T06:35:21.218Z,1.40
2022-07-28T06:37:49.729Z,1.48
2022-07-28T06:40:18.759Z,1.40
2022-07-28T06:42:46.688Z,1.05
2022-07-28T06:45:19.757Z,1.10
2022-07-28T06:47:52.746Z,1.30
2022-07-28T06:50:26.403Z,1.25
2022-07-28T06:52:56.609Z,1.48
2022-07-28T06:55:23.964Z,1.25
2022-07-28T06:57:51.505Z,1.25
2022-07-28T07:00:18.899Z,2.08
2022-07-28T07:02:46.088Z,1.45
2022-07-28T07:05:14.005Z,1.58
2022-07-28T07:07:43.236Z,1.10
2022-07-28T07:10:12.576Z,1.15
2022-07-28T07:12:40.206Z,1.45
2022-07-28T07:15:08.860Z,1.55
2022-07-28T07:17:37.856Z,1.10
2022-07-28T07:20:06.864Z,1.10
2022-07-28T07:22:34.142Z,1.00
2022-07-28T07:25:13.721Z,0.90
2022-07-28T07:27:41.452Z,1.00
2022-07-28T07:30:10.745Z,1.10
2022-07-28T07:32:39.337Z,1.10
2022-07-28T07:35:07.832Z,1.20
2022-07-28T07:37:36.040Z,0.90
2022-07-28T07:40:05.313Z,1.30
2022-07-28T07:42:34.052Z,1.20
2022-07-28T07:45:01.234Z,1.00
2022-07-28T07:47:28.640Z,1.30
2022-07-28T07:49:56.204Z,1.10
2022-07-28T07:52:23.911Z,1.33
2022-07-28T07:54:50.997Z,1.25
2022-07-28T07:57:18.732Z,0.95
2022-07-28T07:59:45.794Z,0.80
2022-07-28T08:02:12.974Z,0.85
2022-07-28T08:04:40.264Z,0.80
2022-07-28T08:07:07.815Z,1.08
2022-07-28T08:09:36.493Z,1.08
2022-07-28T08:12:04.190Z,0.95
2022-07-28T08:14:31.223Z,1.40
2022-07-28T08:16:59.434Z,1.30
2022-07-28T08:19:26.930Z,1.10
2022-07-28T08:21:55.532Z,0.90
2022-07-28T08:24:32.967Z,1.02
2022-07-28T08:27:02.402Z,1.00
2022-07-28T08:29:29.587Z,1.23
2022-07-28T08:31:56.946Z,0.80
2022-07-28T08:34:31.716Z,0.90
2022-07-28T08:37:03.293Z,0.70
2022-07-28T08:39:35.184Z,0.90
2022-07-28T08:42:40.666Z,1.40
2022-07-28T08:45:08.666Z,1.27
2022-07-28T08:47:45.928Z,1.10
2022-07-28T08:50:25.089Z,0.90
2022-07-28T08:52:54.057Z,0.90
2022-07-28T08:55:31.675Z,0.90
2022-07-28T08:58:00.765Z,0.73
2022-07-28T09:00:28.525Z,0.80
2022-07-28T09:02:56.363Z,1.02
2022-07-28T09:05:25.337Z,1.20
2022-07-28T09:07:55.444Z,0.80
2022-07-28T09:10:23.925Z,1.20
2022-07-28T09:12:51.199Z,0.80
2022-07-28T09:15:18.376Z,0.90
2022-07-28T09:17:45.421Z,0.82
2022-07-28T09:20:13.974Z,1.00
2022-07-28T09:23:03.898Z,0.90
2022-07-28T09:25:32.152Z,0.90
2022-07-28T09:28:16.856Z,0.70
2022-07-28T09:30:53.992Z,0.82
2022-07-28T09:33:43.106Z,1.00
2022-07-28T09:36:16.219Z,0.90
2022-07-28T09:38:44.862Z,0.90
2022-07-28T09:41:11.941Z,0.93
2022-07-28T09:43:40.218Z,0.90
2022-07-28T09:46:10.405Z,1.20
2022-07-28T09:48:49.923Z,0.75
2022-07-28T09:51:28.508Z,0.70
2022-07-28T09:54:11.914Z,0.82
2022-07-28T09:56:41.371Z,0.82
2022-07-28T09:59:09.252Z,1.00
2022-07-28T10:01:52.990Z,0.90
2022-07-28T10:04:35.613Z,0.95
2022-07-28T10:07:10.127Z,1.05
2022-07-28T10:09:38.974Z,0.90
2022-07-28T10:12:24.950Z,1.00
2022-07-28T10:14:54.151Z,1.02
2022-07-28T10:17:33.435Z,1.13
2022-07-28T10:20:07.454Z,0.70
2022-07-28T10:22:42.933Z,1.00
2022-07-28T10:25:12.837Z,0.80
2022-07-28T10:27:42.352Z,0.90
2022-07-28T10:30:11.389Z,1.15
2022-07-28T10:32:43.754Z,1.10
2022-07-28T10:35:16.522Z,1.10
2022-07-28T10:37:57.452Z,1.20
2022-07-28T10:40:31.869Z,0.77
2022-07-28T10:43:00.625Z,0.98
2022-07-28T10:45:48.048Z,0.70
2022-07-28T10:48:15.976Z,2.50
2022-07-28T10:50:44.014Z,0.90
2022-07-28T10:53:13.868Z,1.00
2022-07-28T10:55:58.165Z,1.30
2022-07-28T10:58:48.736Z,0.70
2022-07-28T11:01:53.386Z,0.95
2022-07-28T11:04:52.518Z,0.90
2022-07-28T11:07:22.551Z,0.98
2022-07-28T11:09:50.358Z,0.90
2022-07-28T11:12:53.666Z,0.77
2022-07-28T11:15:50.126Z,1.10
2022-07-28T11:18:22.545Z,0.90
2022-07-28T11:20:56.370Z,0.80
2022-07-28T11:23:46.309Z,0.77
2022-07-28T11:26:23.356Z,0.85
2022-07-28T11:29:08.720Z,0.85
2022-07-28T11:34:12.270Z,0.80
2022-07-28T11:36:58.239Z,1.00
2022-07-28T11:39:26.916Z,0.70
2022-07-28T11:41:54.276Z,0.70
2022-07-28T11:44:29.501Z,0.90
2022-07-28T11:47:20.407Z,0.80
2022-07-28T11:50:11.946Z,0.90
2022-07-28T11:52:39.923Z,1.02
2022-07-28T11:55:08.745Z,1.02
2022-07-28T11:57:41.707Z,0.77
2022-07-28T12:00:09.919Z,0.88
2022-07-28T12:02:41.839Z,0.90
2022-07-28T12:05:14.842Z,0.90
2022-07-28T12:07:51.323Z,0.88
2022-07-28T12:10:54.018Z,0.80
2022-07-28T12:13:28.105Z,1.00
2022-07-28T12:15:59.537Z,0.95
2022-07-28T12:18:31.124Z,0.90
2022-07-28T12:21:04.598Z,0.93
2022-07-28T12:23:38.899Z,0.70
2022-07-28T12:26:29.134Z,0.80
2022-07-28T12:31:30.418Z,0.70
2022-07-28T12:33:59.771Z,0.90
2022-07-28T12:36:28.955Z,0.90
2022-07-28T12:39:00.487Z,0.80
2022-07-28T12:41:36.028Z,0.80
2022-07-28T12:44:05.581Z,0.80
2022-07-28T12:46:33.860Z,0.70
2022-07-28T12:49:03.475Z,0.85
2022-07-28T12:51:43.306Z,0.90
2022-07-28T12:54:16.962Z,0.90
2022-07-28T12:56:52.847Z,0.70
2022-07-28T12:59:34.397Z,0.93
2022-07-28T13:02:08.608Z,0.75
2022-07-28T13:04:50.456Z,0.75
2022-07-28T13:07:21.052Z,0.88
2022-07-28T13:10:04.880Z,1.10
2022-07-28T13:12:32.586Z,0.90
2022-07-28T13:15:04.586Z,1.20
2022-07-28T13:17:53.699Z,1.00
2022-07-28T13:20:27.228Z,0.93
2022-07-28T13:22:56.078Z,1.23
2022-07-28T13:25:23.860Z,0.90
2022-07-28T13:27:55.597Z,1.10
2022-07-28T13:30:24.225Z,1.10
2022-07-28T13:32:56.836Z,1.00
2022-07-28T13:35:28.050Z,0.80
2022-07-28T13:37:55.589Z,0.70
2022-07-28T13:40:23.577Z,0.80
2022-07-28T13:42:52.921Z,0.65
2022-07-28T13:45:29.972Z,0.82
2022-07-28T13:47:58.118Z,1.00
2022-07-28T13:50:25.817Z,0.73
2022-07-28T13:52:53.853Z,0.90
2022-07-28T13:55:22.866Z,0.98
2022-07-28T13:57:53.617Z,0.93
2022-07-28T14:00:25.948Z,1.15
2022-07-28T14:02:53.749Z,0.90
2022-07-28T14:05:21.501Z,0.90
2022-07-28T14:07:49.512Z,0.90
2022-07-28T14:10:18.413Z,1.00
2022-07-28T14:12:46.780Z,0.90
2022-07-28T14:15:14.530Z,1.00
2022-07-28T14:17:43.815Z,0.80
2022-07-28T14:20:15.925Z,1.10
2022-07-28T14:22:44.729Z,0.85
2022-07-28T14:25:19.787Z,1.10
2022-07-28T14:27:51.069Z,0.82
2022-07-28T14:30:20.109Z,1.02
2022-07-28T14:32:47.770Z,0.80
2022-07-28T14:35:15.894Z,1.00
2022-07-28T14:40:31.273Z,0.90
2022-07-28T14:42:58.771Z,0.80
2022-07-28T14:45:26.303Z,0.75
2022-07-28T14:47:55.399Z,0.80
2022-07-28T14:50:24.042Z,0.90
2022-07-28T14:52:51.829Z,0.88
2022-07-28T14:55:20.490Z,0.70
2022-07-28T14:57:54.417Z,1.02
2022-07-28T15:00:24.833Z,1.05
2022-07-28T15:02:55.297Z,1.02
2022-07-28T15:05:23.391Z,1.15
2022-07-28T15:07:52.465Z,0.80
2022-07-28T15:10:23.808Z,0.90
2022-07-28T15:12:54.183Z,0.90
2022-07-28T15:15:27.658Z,1.00
2022-07-28T15:17:56.954Z,1.35
2022-07-28T15:20:24.708Z,0.95
2022-07-28T15:22:52.401Z,0.70
2022-07-28T15:25:20.744Z,0.88
2022-07-28T15:27:48.226Z,0.93
2022-07-28T15:30:20.398Z,1.13
2022-07-28T15:32:55.732Z,0.93
2022-07-28T15:35:25.902Z,0.98
2022-07-28T15:37:53.521Z,0.93
2022-07-28T15:40:21.059Z,1.08
2022-07-28T15:42:48.633Z,0.77
2022-07-28T15:45:15.997Z,0.90
2022-07-28T15:47:43.323Z,1.10
2022-07-28T15:50:10.905Z,0.80
2022-07-28T15:52:38.484Z,1.00
2022-07-28T15:55:09.113Z,0.90
2022-07-28T15:57:37.892Z,1.02
2022-07-28T16:00:06.773Z,0.90
2022-07-28T16:02:34.274Z,0.90
2022-07-28T16:05:01.643Z,0.80
2022-07-28T16:07:35.286Z,0.70
2022-07-28T16:10:03.292Z,0.90
2022-07-28T16:12:30.692Z,0.85
2022-07-28T16:14:58.264Z,0.80
2022-07-28T16:17:33.379Z,0.80
2022-07-28T16:20:04.938Z,0.80
2022-07-28T16:22:38.545Z,0.85
2022-07-28T16:25:06.743Z,0.90
2022-07-28T16:27:35.460Z,0.70
2022-07-28T16:30:05.356Z,0.88
2022-07-28T16:32:36.072Z,0.77
2022-07-28T16:35:04.349Z,0.75
2022-07-28T16:37:31.906Z,0.60
2022-07-28T16:39:59.447Z,0.98
2022-07-28T16:42:27.136Z,0.82
2022-07-28T16:44:54.668Z,0.82
2022-07-28T16:47:23.484Z,0.68
2022-07-28T16:49:51.040Z,0.73
2022-07-28T16:52:18.990Z,0.98
2022-07-28T16:54:47.400Z,0.70
2022-07-28T16:57:20.411Z,0.60
2022-07-28T16:59:51.182Z,0.65
2022-07-28T17:02:21.190Z,0.63
2022-07-28T17:04:49.024Z,0.75
2022-07-28T17:07:16.430Z,0.77
2022-07-28T17:09:45.713Z,0.70
2022-07-28T17:12:15.728Z,0.90
2022-07-28T17:14:43.124Z,0.80
2022-07-28T17:17:11.175Z,0.73
2022-07-28T17:19:46.606Z,0.70
2022-07-28T17:22:15.733Z,0.90
2022-07-28T17:24:43.180Z,0.98
2022-07-28T17:29:59.705Z,1.10
2022-07-28T17:32:27.252Z,0.70
2022-07-28T17:34:59.633Z,0.68
2022-07-28T17:37:29.355Z,0.88
2022-07-28T17:39:58.030Z,0.80
2022-07-28T17:42:28.563Z,1.00
2022-07-28T17:44:57.871Z,1.27
2022-07-28T17:47:36.013Z,0.80
2022-07-28T17:50:07.812Z,0.85
2022-07-28T17:52:36.524Z,0.80
2022-07-28T17:55:24.088Z,0.90
2022-07-28T17:57:52.125Z,0.80
2022-07-28T18:00:23.783Z,0.82
2022-07-28T18:02:53.748Z,1.00
2022-07-28T18:05:24.531Z,0.80
2022-07-28T18:07:59.263Z,0.80
2022-07-28T18:10:29.253Z,0.60
2022-07-28T18:12:57.043Z,0.80
2022-07-28T18:15:28.711Z,0.82
2022-07-28T18:18:01.479Z,0.73
2022-07-28T18:20:29.945Z,0.75
2022-07-28T18:22:58.018Z,0.80
2022-07-28T18:25:29.915Z,0.75
2022-07-28T18:27:58.723Z,0.90
2022-07-28T18:30:29.712Z,0.90
2022-07-28T18:32:57.345Z,0.82
2022-07-28T18:35:25.444Z,1.10
2022-07-28T18:37:56.289Z,1.02
2022-07-28T18:40:24.866Z,1.05
2022-07-28T18:42:52.829Z,0.80
2022-07-28T18:45:21.519Z,1.00
2022-07-28T18:47:48.543Z,0.98
2022-07-28T18:50:31.273Z,0.93
2022-07-28T18:52:59.175Z,0.80
2022-07-28T18:55:26.357Z,0.70
2022-07-28T18:57:53.368Z,1.00
2022-07-28T19:00:20.536Z,0.85
2022-07-28T19:02:47.672Z,1.20
2022-07-28T19:05:14.894Z,1.20
2022-07-28T19:07:43.954Z,0.70
2022-07-28T19:10:12.659Z,0.80
2022-07-28T19:12:39.991Z,0.82
2022-07-28T19:15:07.924Z,0.90
2022-07-28T19:17:35.075Z,0.85
2022-07-28T19:20:02.246Z,1.13
2022-07-28T19:22:29.219Z,1.13
2022-07-28T19:24:56.544Z,1.20
2022-07-28T19:27:23.545Z,0.80
2022-07-28T19:29:51.236Z,0.90
2022-07-28T19:32:21.199Z,1.02
2022-07-28T19:34:48.375Z,0.88
2022-07-28T19:37:16.809Z,0.88
2022-07-28T19:39:46.080Z,0.77
2022-07-28T19:42:13.454Z,0.90
2022-07-28T19:44:42.578Z,0.90
2022-07-28T19:47:09.664Z,0.90
2022-07-28T19:49:39.389Z,1.20
2022-07-28T19:52:07.413Z,0.98
2022-07-28T19:54:35.170Z,1.00
2022-07-28T19:57:10.263Z,0.80
2022-07-28T19:59:39.606Z,0.80
2022-07-28T20:02:07.172Z,0.98
2022-07-28T20:04:34.291Z,0.93
2022-07-28T20:07:14.884Z,0.90
2022-07-28T20:09:42.348Z,0.80
2022-07-28T20:12:09.410Z,0.75
2022-07-28T20:14:39.303Z,0.88
2022-07-28T20:17:06.875Z,1.02
2022-07-28T20:19:34.068Z,1.20
2022-07-28T20:22:01.020Z,1.00
2022-07-28T20:24:28.144Z,1.00
2022-07-28T20:26:56.399Z,1.30
2022-07-28T20:29:23.489Z,0.95
2022-07-28T20:31:50.523Z,0.77
2022-07-28T20:34:18.344Z,1.00
2022-07-28T20:36:45.715Z,1.00
2022-07-28T20:39:42.240Z,0.90
2022-07-28T20:41:59.728Z,1.00
2022-07-28T20:44:29.258Z,0.80
2022-07-28T20:47:00.643Z,1.02
2022-07-28T20:49:29.796Z,0.90
2022-07-28T20:51:58.048Z,1.10
2022-07-28T20:54:28.545Z,0.70
2022-07-28T20:56:55.692Z,1.23
2022-07-28T20:59:27.602Z,0.80
2022-07-28T21:01:55.459Z,0.90
2022-07-28T21:04:24.688Z,1.15
2022-07-28T21:06:55.394Z,1.15
2022-07-28T21:09:28.241Z,0.88
2022-07-28T21:11:55.509Z,0.90
2022-07-28T21:14:22.552Z,0.90
2022-07-28T21:16:49.799Z,1.00
2022-07-28T21:19:17.021Z,1.73
2022-07-28T21:21:43.974Z,1.38
2022-07-28T21:24:10.964Z,1.05
2022-07-28T21:26:40.565Z,0.90
2022-07-28T21:32:05.337Z,1.02
2022-07-28T21:34:31.365Z,0.90
2022-07-28T21:37:01.498Z,1.13
2022-07-28T21:39:28.546Z,0.85
2022-07-28T21:41:55.746Z,1.00
2022-07-28T21:44:23.618Z,1.02
2022-07-28T21:46:51.631Z,0.90
2022-07-28T21:49:18.991Z,0.90
2022-07-28T21:51:46.593Z,1.17
2022-07-28T21:54:13.940Z,1.00
2022-07-28T21:56:41.203Z,1.20
2022-07-28T21:59:08.257Z,1.02
2022-07-28T22:01:35.414Z,0.95
2022-07-28T22:04:03.728Z,1.15
2022-07-28T22:06:31.122Z,0.88
2022-07-28T22:08:58.587Z,0.88
2022-07-28T22:11:25.580Z,1.05
2022-07-28T22:13:52.561Z,0.93
2022-07-28T22:16:19.720Z,0.90
2022-07-28T22:18:46.725Z,1.00
2022-07-28T22:21:13.822Z,1.15
2022-07-28T22:23:42.773Z,1.20
2022-07-28T22:26:10.181Z,1.30
2022-07-28T22:28:37.243Z,1.63
2022-07-28T22:31:08.609Z,0.88
2022-07-28T22:33:40.104Z,1.23
2022-07-28T22:36:09.065Z,1.10
2022-07-28T22:38:36.508Z,1.05
2022-07-28T22:41:03.629Z,1.17
2022-07-28T22:43:33.535Z,1.25
2022-07-28T22:46:00.981Z,1.00
2022-07-28T22:48:28.142Z,0.93
2022-07-28T22:50:55.419Z,1.20
2022-07-28T22:53:22.536Z,1.10
2022-07-28T22:55:49.658Z,1.05
2022-07-28T22:58:16.717Z,1.17
2022-07-28T23:00:44.082Z,1.05
2022-07-28T23:03:13.076Z,1.02
2022-07-28T23:05:41.309Z,1.27
2022-07-28T23:08:08.491Z,1.45
2022-07-28T23:10:37.932Z,1.00
2022-07-28T23:13:05.033Z,1.20
2022-07-28T23:15:40.516Z,1.20
2022-07-28T23:18:14.205Z,1.20
2022-07-28T23:20:42.173Z,0.80
2022-07-28T23:23:10.474Z,1.13
2022-07-28T23:25:40.541Z,1.10
2022-07-28T23:28:08.050Z,1.20
2022-07-28T23:30:35.338Z,1.35
2022-07-28T23:33:02.440Z,1.00
2022-07-28T23:35:29.544Z,1.25
2022-07-28T23:37:56.763Z,1.10
2022-07-28T23:40:23.979Z,1.10
2022-07-28T23:42:51.062Z,1.13
2022-07-28T23:45:17.989Z,1.38
2022-07-28T23:47:45.091Z,1.20
2022-07-28T23:50:12.063Z,1.08
2022-07-28T23:52:39.986Z,1.00
2022-07-28T23:55:08.029Z,1.10
2022-07-28T23:57:34.976Z,0.95
